createdAt,value
2018-02-01T00:02:03.336Z,100207.95
2018-02-01T00:04:31.805Z,100216.09
2018-02-01T00:07:00.301Z,100212.39
2018-02-01T00:09:28.773Z,100197.53
2018-02-01T00:11:57.272Z,100208.67
2018-02-01T00:14:25.740Z,100206.13
2018-02-01T00:16:54.244Z,100212.69
2018-02-01T00:19:22.733Z,100210.73
2018-02-01T00:21:51.224Z,100211.25
2018-02-01T00:24:19.713Z,100206.16
2018-02-01T00:26:48.218Z,100203.89
2018-02-01T00:29:16.677Z,100200.91
2018-02-01T00:31:45.214Z,100199.97
2018-02-01T00:34:13.651Z,100197.08
2018-02-01T00:36:42.161Z,100189.58
2018-02-01T00:39:10.641Z,100186.13
2018-02-01T00:41:39.137Z,100181.98
2018-02-01T00:44:07.633Z,100181.49
2018-02-01T00:46:36.094Z,100181.23
2018-02-01T00:49:04.609Z,100173.09
2018-02-01T00:51:33.058Z,100175.98
2018-02-01T00:54:01.553Z,100174.27
2018-02-01T00:56:30.014Z,100178.45
2018-02-01T00:58:58.469Z,100167.41
2018-02-01T01:01:26.957Z,100167.75
2018-02-01T01:03:55.410Z,100164.22
2018-02-01T01:06:23.913Z,100165.94
2018-02-01T01:08:52.413Z,100170.86
2018-02-01T01:11:20.939Z,100173.74
2018-02-01T01:13:49.430Z,100163.56
2018-02-01T01:16:17.893Z,100163.13
2018-02-01T01:18:46.377Z,100160.06
2018-02-01T01:21:14.833Z,100150.56
2018-02-01T01:23:43.345Z,100147.03
2018-02-01T01:26:11.813Z,100153.13
2018-02-01T01:28:40.309Z,100154.56
2018-02-01T01:31:08.799Z,100152.67
2018-02-01T01:33:37.282Z,100143.84
2018-02-01T01:36:05.772Z,100143.36
2018-02-01T01:38:34.256Z,100144.19
2018-02-01T01:41:02.757Z,100135.97
2018-02-01T01:43:31.206Z,100143.53
2018-02-01T01:46:11.478Z,100143.30
2018-02-01T01:48:39.942Z,100140.23
2018-02-01T01:51:08.446Z,100131.91
2018-02-01T01:53:36.910Z,100130.16
2018-02-01T01:56:05.368Z,100132.84
2018-02-01T01:58:33.873Z,100124.80
2018-02-01T02:01:02.326Z,100126.66
2018-02-01T02:03:30.824Z,100125.97
2018-02-01T02:05:59.330Z,100127.41
2018-02-01T02:08:27.830Z,100134.63
2018-02-01T02:10:56.277Z,100131.23
2018-02-01T02:13:24.766Z,100124.97
2018-02-01T02:15:53.266Z,100126.17
2018-02-01T02:18:21.762Z,100113.86
2018-02-01T02:20:50.237Z,100125.78
2018-02-01T02:23:18.742Z,100123.30
2018-02-01T02:25:47.212Z,100125.14
2018-02-01T02:28:15.688Z,100130.23
2018-02-01T02:30:44.195Z,100124.68
2018-02-01T02:33:12.707Z,100121.75
2018-02-01T02:35:41.233Z,100115.45
2018-02-01T02:38:09.741Z,100111.00
2018-02-01T02:40:38.213Z,100115.41
2018-02-01T02:43:06.709Z,100113.03
2018-02-01T02:45:35.238Z,100105.91
2018-02-01T02:48:03.745Z,100099.70
2018-02-01T02:50:32.222Z,100105.45
2018-02-01T02:53:00.716Z,100097.62
2018-02-01T02:55:29.199Z,100097.34
2018-02-01T02:57:57.693Z,100091.31
2018-02-01T03:00:26.195Z,100084.22
2018-02-01T03:02:54.678Z,100085.62
2018-02-01T03:05:23.158Z,100092.30
2018-02-01T03:07:51.673Z,100093.63
2018-02-01T03:10:20.147Z,100083.08
2018-02-01T03:12:48.602Z,100081.56
2018-02-01T03:15:17.119Z,100082.69
2018-02-01T03:17:45.637Z,100066.23
2018-02-01T03:20:14.169Z,100073.30
2018-02-01T03:22:42.658Z,100078.48
2018-02-01T03:25:11.117Z,100074.73
2018-02-01T03:27:39.648Z,100075.86
2018-02-01T03:30:08.153Z,100083.00
2018-02-01T03:32:36.657Z,100075.36
2018-02-01T03:35:05.134Z,100069.56
2018-02-01T03:37:33.618Z,100073.80
2018-02-01T03:40:02.116Z,100063.34
2018-02-01T03:42:30.610Z,100069.10
2018-02-01T03:44:59.077Z,100062.92
2018-02-01T03:47:27.608Z,100072.16
2018-02-01T03:49:56.053Z,100064.61
2018-02-01T03:52:24.519Z,100062.83
2018-02-01T03:54:53.021Z,100058.43
2018-02-01T03:57:21.469Z,100056.77
2018-02-01T03:59:49.941Z,100058.53
2018-02-01T04:02:18.430Z,100055.58
2018-02-01T04:04:46.966Z,100063.73
2018-02-01T04:07:15.413Z,100066.21
2018-02-01T04:09:43.913Z,100063.66
2018-02-01T04:12:12.386Z,100064.07
2018-02-01T04:14:40.949Z,100064.44
2018-02-01T04:17:09.462Z,100058.49
2018-02-01T04:19:37.918Z,100055.57
2018-02-01T04:22:06.412Z,100043.82
2018-02-01T04:24:34.905Z,100046.08
2018-02-01T04:27:03.373Z,100046.45
2018-02-01T04:29:31.925Z,100058.66
2018-02-01T04:32:00.446Z,100056.66
2018-02-01T04:34:28.894Z,100041.36
2018-02-01T04:36:57.389Z,100057.30
2018-02-01T04:39:25.853Z,100057.64
2018-02-01T04:41:54.373Z,100054.09
2018-02-01T04:44:22.834Z,100057.66
2018-02-01T04:46:51.297Z,100055.70
2018-02-01T04:49:19.792Z,100054.05
2018-02-01T04:51:48.271Z,100052.98
2018-02-01T04:54:16.758Z,100060.80
2018-02-01T04:56:45.260Z,100048.59
2018-02-01T04:59:13.718Z,100056.05
2018-02-01T05:01:42.234Z,100058.52
2018-02-01T05:04:10.706Z,100058.62
2018-02-01T05:06:39.202Z,100054.77
2018-02-01T05:09:07.693Z,100058.14
2018-02-01T05:11:36.201Z,100054.39
2018-02-01T05:14:04.650Z,100054.80
2018-02-01T05:16:33.219Z,100050.87
2018-02-01T05:19:01.692Z,100053.83
2018-02-01T05:21:30.165Z,100050.58
2018-02-01T05:23:58.654Z,100047.06
2018-02-01T05:26:27.149Z,100046.59
2018-02-01T05:28:55.646Z,100042.84
2018-02-01T05:31:24.105Z,100053.69
2018-02-01T05:33:52.605Z,100017.25
2018-02-01T05:36:21.071Z,100044.66
2018-02-01T05:38:49.569Z,100052.11
2018-02-01T05:41:18.033Z,100052.01
2018-02-01T05:43:46.533Z,100056.27
2018-02-01T05:46:15.048Z,100050.83
2018-02-01T05:48:43.510Z,100048.36
2018-02-01T05:51:12.041Z,100045.34
2018-02-01T05:53:40.544Z,100048.60
2018-02-01T05:56:09.059Z,100049.06
2018-02-01T05:58:37.539Z,100049.58
2018-02-01T06:01:06.002Z,100053.50
2018-02-01T06:03:34.536Z,100050.83
2018-02-01T06:06:03.046Z,100054.75
2018-02-01T06:08:31.537Z,100057.09
2018-02-01T06:10:59.997Z,100050.63
2018-02-01T06:13:28.515Z,100049.16
2018-02-01T06:15:56.969Z,100049.34
2018-02-01T06:18:25.442Z,100043.48
2018-02-01T06:20:53.953Z,100066.52
2018-02-01T06:23:22.410Z,100059.86
2018-02-01T06:25:50.866Z,100066.80
2018-02-01T06:28:19.361Z,100064.30
2018-02-01T06:30:47.871Z,100058.96
2018-02-01T06:33:16.333Z,100054.13
2018-02-01T06:35:44.831Z,100066.41
2018-02-01T06:38:13.289Z,100072.27
2018-02-01T06:40:41.765Z,100073.64
2018-02-01T06:43:10.258Z,100056.55
2018-02-01T06:45:38.744Z,100065.66
2018-02-01T06:48:07.254Z,100067.14
2018-02-01T06:50:36.498Z,100069.00
2018-02-01T06:53:05.037Z,100067.76
2018-02-01T06:55:33.529Z,100053.52
2018-02-01T06:58:01.997Z,100060.97
2018-02-01T07:03:30.865Z,100073.23
2018-02-01T07:05:59.391Z,100063.98
2018-02-01T07:08:27.933Z,100059.25
2018-02-01T07:10:56.527Z,100066.52
2018-02-01T07:13:25.106Z,100056.88
2018-02-01T07:15:53.643Z,100065.65
2018-02-01T07:18:22.182Z,100059.70
2018-02-01T07:20:50.713Z,100040.73
2018-02-01T07:23:19.248Z,100043.99
2018-02-01T07:25:47.832Z,100072.02
2018-02-01T07:28:18.175Z,100053.68
2018-02-01T07:30:46.698Z,100068.97
2018-02-01T07:33:15.171Z,100067.66
2018-02-01T07:35:43.704Z,100074.63
2018-02-01T07:38:12.178Z,100077.23
2018-02-01T07:40:40.674Z,100079.08
2018-02-01T07:43:09.243Z,100077.92
2018-02-01T07:45:38.344Z,100062.32
2018-02-01T07:48:06.842Z,100082.38
2018-02-01T07:50:35.394Z,100079.44
2018-02-01T07:53:03.908Z,100067.54
2018-02-01T07:55:32.450Z,100087.87
2018-02-01T07:58:00.965Z,100068.21
2018-02-01T08:00:29.454Z,100072.08
2018-02-01T08:02:57.949Z,100091.63
2018-02-01T08:05:26.432Z,100093.12
2018-02-01T08:07:54.938Z,100095.14
2018-02-01T08:10:23.402Z,100102.29
2018-02-01T08:12:51.932Z,100083.12
2018-02-01T08:15:20.401Z,100092.58
2018-02-01T08:17:48.929Z,100098.00
2018-02-01T08:20:17.429Z,100085.80
2018-02-01T08:22:45.962Z,100104.95
2018-02-01T08:25:14.488Z,100101.63
2018-02-01T08:27:42.974Z,100101.05
2018-02-01T08:30:11.506Z,100095.25
2018-02-01T08:32:39.973Z,100099.70
2018-02-01T08:35:08.434Z,100097.64
2018-02-01T08:37:36.880Z,100107.31
2018-02-01T08:40:05.456Z,100099.44
2018-02-01T08:42:33.977Z,100106.89
2018-02-01T08:45:02.477Z,100109.13
2018-02-01T08:47:30.970Z,100096.63
2018-02-01T08:49:59.569Z,100099.06
2018-02-01T08:52:28.044Z,100108.28
2018-02-01T08:54:56.557Z,100109.13
2018-02-01T08:57:25.061Z,100107.14
2018-02-01T08:59:53.523Z,100103.74
2018-02-01T09:02:22.041Z,100106.84
2018-02-01T09:04:50.505Z,100110.78
2018-02-01T09:07:19.005Z,100100.63
2018-02-01T09:09:47.483Z,100101.67
2018-02-01T09:12:15.998Z,100101.75
2018-02-01T09:14:44.519Z,100101.55
2018-02-01T09:17:13.009Z,100107.38
2018-02-01T09:19:41.536Z,100094.80
2018-02-01T09:22:10.084Z,100088.67
2018-02-01T09:24:38.582Z,100059.81
2018-02-01T09:27:07.048Z,100071.08
2018-02-01T09:29:35.646Z,100069.55
2018-02-01T09:32:04.117Z,100050.44
2018-02-01T09:34:32.590Z,100058.75
2018-02-01T09:37:01.146Z,100059.87
2018-02-01T09:39:29.628Z,100055.84
2018-02-01T09:41:58.138Z,100050.36
2018-02-01T09:44:26.661Z,100044.19
2018-02-01T09:46:55.178Z,100042.62
2018-02-01T09:49:23.625Z,100033.16
2018-02-01T09:51:52.144Z,100021.00
2018-02-01T09:54:20.637Z,100021.98
2018-02-01T09:56:49.120Z,100014.80
2018-02-01T09:59:17.624Z,100010.08
2018-02-01T10:01:46.133Z,100006.64
2018-02-01T10:04:14.629Z,99983.39
2018-02-01T10:06:43.138Z,99983.23
2018-02-01T10:09:11.647Z,99997.52
2018-02-01T10:11:40.130Z,99991.88
2018-02-01T10:14:08.621Z,99982.81
2018-02-01T10:16:37.122Z,99979.84
2018-02-01T10:19:05.606Z,99971.63
2018-02-01T10:21:34.117Z,99968.52
2018-02-01T10:24:02.561Z,99968.05
2018-02-01T10:26:31.031Z,99960.80
2018-02-01T10:28:59.572Z,99959.72
2018-02-01T10:31:28.059Z,99946.00
2018-02-01T10:33:56.561Z,99941.11
2018-02-01T10:36:25.066Z,99931.74
2018-02-01T10:38:53.594Z,99923.93
2018-02-01T10:41:22.092Z,99919.29
2018-02-01T10:43:50.558Z,99911.73
2018-02-01T10:46:19.055Z,99911.08
2018-02-01T10:48:47.569Z,99901.47
2018-02-01T10:51:16.086Z,99899.91
2018-02-01T10:53:44.601Z,99890.48
2018-02-01T10:56:17.973Z,99880.41
2018-02-01T10:58:46.440Z,99872.69
2018-02-01T11:01:14.937Z,99873.88
2018-02-01T11:03:43.437Z,99876.17
2018-02-01T11:06:11.956Z,99871.06
2018-02-01T11:08:40.429Z,99849.37
2018-02-01T11:11:08.885Z,99845.52
2018-02-01T11:13:37.406Z,99827.70
2018-02-01T11:16:06.074Z,99839.23
2018-02-01T11:18:34.543Z,99833.48
2018-02-01T11:21:03.012Z,99828.25
2018-02-01T11:23:31.554Z,99834.48
2018-02-01T11:26:00.062Z,99833.08
2018-02-01T11:28:28.578Z,99829.45
2018-02-01T11:30:57.082Z,99819.05
2018-02-01T11:33:25.595Z,99812.16
2018-02-01T11:35:54.109Z,99811.98
2018-02-01T11:38:22.625Z,99817.06
2018-02-01T11:40:51.161Z,99808.95
2018-02-01T11:43:19.625Z,99793.67
2018-02-01T11:45:48.103Z,99808.19
2018-02-01T11:48:16.679Z,99791.53
2018-02-01T11:50:45.149Z,99787.67
2018-02-01T11:53:13.657Z,99780.42
2018-02-01T11:55:42.126Z,99783.12
2018-02-01T11:58:10.629Z,99780.63
2018-02-01T12:00:39.110Z,99768.79
2018-02-01T12:03:07.669Z,99779.38
2018-02-01T12:05:36.184Z,99780.44
2018-02-01T12:08:04.654Z,99778.52
2018-02-01T12:10:33.709Z,99777.45
2018-02-01T12:13:02.170Z,99759.64
2018-02-01T12:15:30.662Z,99759.59
2018-02-01T12:17:59.128Z,99759.70
2018-02-01T12:20:27.624Z,99758.89
2018-02-01T12:22:56.118Z,99753.94
2018-02-01T12:25:25.378Z,99761.52
2018-02-01T12:27:53.882Z,99750.42
2018-02-01T12:30:22.405Z,99734.25
2018-02-01T12:32:51.128Z,99737.59
2018-02-01T12:35:20.486Z,99734.56
2018-02-01T12:37:49.790Z,99724.58
2018-02-01T12:40:18.241Z,99722.03
2018-02-01T12:42:46.731Z,99724.85
2018-02-01T12:45:15.240Z,99719.18
2018-02-01T12:47:43.733Z,99718.60
2018-02-01T12:50:12.213Z,99719.96
2018-02-01T12:52:40.682Z,99706.58
2018-02-01T12:55:09.129Z,99706.98
2018-02-01T12:57:37.618Z,99706.47
2018-02-01T13:00:06.051Z,99706.03
2018-02-01T13:02:34.562Z,99703.11
2018-02-01T13:05:03.046Z,99691.88
2018-02-01T13:07:31.494Z,99705.31
2018-02-01T13:09:59.986Z,99703.00
2018-02-01T13:12:28.490Z,99697.59
2018-02-01T13:14:56.977Z,99678.81
2018-02-01T13:17:25.475Z,99691.61
2018-02-01T13:19:53.930Z,99703.05
2018-02-01T13:22:22.419Z,99699.37
2018-02-01T13:24:50.925Z,99692.92
2018-02-01T13:27:19.390Z,99691.39
2018-02-01T13:29:47.916Z,99685.91
2018-02-01T13:32:16.390Z,99693.21
2018-02-01T13:34:44.838Z,99688.41
2018-02-01T13:37:13.326Z,99689.77
2018-02-01T13:39:41.832Z,99693.75
2018-02-01T13:42:10.281Z,99690.69
2018-02-01T13:44:38.765Z,99693.08
2018-02-01T13:47:07.224Z,99690.67
2018-02-01T13:49:35.705Z,99688.45
2018-02-01T13:52:04.163Z,99701.28
2018-02-01T13:54:32.650Z,99695.19
2018-02-01T13:57:01.158Z,99691.43
2018-02-01T13:59:29.606Z,99674.69
2018-02-01T14:01:58.121Z,99679.45
2018-02-01T14:04:26.578Z,99688.09
2018-02-01T14:06:55.025Z,99685.67
2018-02-01T14:09:23.513Z,99690.63
2018-02-01T14:11:51.963Z,99687.53
2018-02-01T14:14:20.463Z,99676.27
2018-02-01T14:16:49.006Z,99677.95
2018-02-01T14:19:17.462Z,99670.80
2018-02-01T14:21:45.989Z,99676.16
2018-02-01T14:24:14.442Z,99674.47
2018-02-01T14:26:43.801Z,99674.09
2018-02-01T14:29:12.260Z,99675.45
2018-02-01T14:31:40.745Z,99672.30
2018-02-01T14:34:09.226Z,99671.53
2018-02-01T14:36:37.714Z,99673.73
2018-02-01T14:39:06.230Z,99673.90
2018-02-01T14:41:34.691Z,99675.91
2018-02-01T14:44:03.181Z,99662.41
2018-02-01T14:46:31.638Z,99682.03
2018-02-01T14:49:00.129Z,99689.66
2018-02-01T14:51:28.591Z,99684.19
2018-02-01T14:53:58.091Z,99681.92
2018-02-01T14:56:26.598Z,99683.62
2018-02-01T14:58:55.085Z,99684.09
2018-02-01T15:01:23.541Z,99688.65
2018-02-01T15:03:52.125Z,99676.36
2018-02-01T15:06:20.570Z,99680.16
2018-02-01T15:08:49.067Z,99664.16
2018-02-01T15:11:17.573Z,99678.28
2018-02-01T15:13:46.021Z,99687.69
2018-02-01T15:16:14.502Z,99690.02
2018-02-01T15:18:42.998Z,99666.52
2018-02-01T15:21:11.481Z,99685.73
2018-02-01T15:23:39.933Z,99683.60
2018-02-01T15:26:08.417Z,99701.91
2018-02-01T15:28:36.901Z,99692.15
2018-02-01T15:31:05.361Z,99687.79
2018-02-01T15:33:33.860Z,99694.00
2018-02-01T15:36:02.341Z,99672.87
2018-02-01T15:38:30.829Z,99675.31
2018-02-01T15:40:59.318Z,99673.98
2018-02-01T15:43:27.841Z,99677.83
2018-02-01T15:45:56.301Z,99685.50
2018-02-01T15:48:24.785Z,99691.16
2018-02-01T15:50:53.236Z,99687.72
2018-02-01T15:53:21.721Z,99682.17
2018-02-01T15:55:50.213Z,99681.78
2018-02-01T15:58:18.693Z,99690.78
2018-02-01T16:00:47.147Z,99681.14
2018-02-01T16:03:15.633Z,99682.00
2018-02-01T16:05:44.146Z,99680.89
2018-02-01T16:08:12.589Z,99683.18
2018-02-01T16:10:41.038Z,99676.56
2018-02-01T16:13:09.527Z,99688.50
2018-02-01T16:15:38.023Z,99699.78
2018-02-01T16:18:06.621Z,99693.83
2018-02-01T16:20:35.082Z,99688.42
2018-02-01T16:23:03.573Z,99684.30
2018-02-01T16:25:32.022Z,99687.70
2018-02-01T16:28:00.520Z,99684.77
2018-02-01T16:30:28.971Z,99696.37
2018-02-01T16:32:57.453Z,99682.81
2018-02-01T16:35:25.942Z,99677.69
2018-02-01T16:37:54.386Z,99685.50
2018-02-01T16:40:22.868Z,99682.54
2018-02-01T16:42:51.407Z,99687.00
2018-02-01T16:45:19.850Z,99691.91
2018-02-01T16:47:48.325Z,99691.17
2018-02-01T16:50:16.774Z,99684.50
2018-02-01T16:52:45.261Z,99695.49
2018-02-01T16:55:13.710Z,99696.11
2018-02-01T16:57:42.149Z,99702.36
2018-02-01T17:00:10.638Z,99704.69
2018-02-01T17:02:39.077Z,99703.10
2018-02-01T17:05:07.557Z,99707.26
2018-02-01T17:07:36.002Z,99708.97
2018-02-01T17:10:04.481Z,99709.85
2018-02-01T17:12:32.925Z,99711.06
2018-02-01T17:15:01.397Z,99715.19
2018-02-01T17:17:29.873Z,99707.29
2018-02-01T17:19:58.326Z,99706.30
2018-02-01T17:22:26.801Z,99701.65
2018-02-01T17:24:55.251Z,99697.23
2018-02-01T17:27:23.711Z,99712.92
2018-02-01T17:29:52.189Z,99706.34
2018-02-01T17:32:20.661Z,99698.59
2018-02-01T17:34:49.110Z,99706.84
2018-02-01T17:37:17.589Z,99706.04
2018-02-01T17:39:46.080Z,99693.88
2018-02-01T17:42:14.601Z,99706.63
2018-02-01T17:44:43.049Z,99704.38
2018-02-01T17:47:11.533Z,99710.12
2018-02-01T17:49:39.986Z,99725.93
2018-02-01T17:52:08.470Z,99718.70
2018-02-01T17:54:36.914Z,99713.35
2018-02-01T17:57:05.390Z,99713.81
2018-02-01T17:59:33.865Z,99725.66
2018-02-01T18:02:02.310Z,99719.27
2018-02-01T18:04:30.830Z,99724.78
2018-02-01T18:06:59.314Z,99726.04
2018-02-01T18:09:27.818Z,99718.08
2018-02-01T18:11:56.294Z,99721.41
2018-02-01T18:14:24.784Z,99717.03
2018-02-01T18:16:53.226Z,99725.03
2018-02-01T18:19:21.705Z,99726.56
2018-02-01T18:21:50.186Z,99725.02
2018-02-01T18:24:18.629Z,99718.78
2018-02-01T18:26:47.110Z,99718.50
2018-02-01T18:29:15.554Z,99720.39
2018-02-01T18:31:44.034Z,99726.48
2018-02-01T18:34:12.472Z,99725.66
2018-02-01T18:36:41.945Z,99717.70
2018-02-01T18:39:10.433Z,99723.38
2018-02-01T18:41:38.925Z,99730.44
2018-02-01T18:44:07.401Z,99735.91
2018-02-01T18:46:35.908Z,99734.80
2018-02-01T18:49:04.360Z,99736.58
2018-02-01T18:51:32.853Z,99734.40
2018-02-01T18:54:01.377Z,99736.06
2018-02-01T18:56:29.853Z,99734.17
2018-02-01T18:58:58.293Z,99733.66
2018-02-01T19:01:26.774Z,99730.56
2018-02-01T19:03:55.237Z,99732.22
2018-02-01T19:06:23.713Z,99733.46
2018-02-01T19:08:52.198Z,99735.94
2018-02-01T19:11:20.676Z,99750.31
2018-02-01T19:13:49.118Z,99747.14
2018-02-01T19:16:17.611Z,99733.00
2018-02-01T19:18:46.053Z,99745.75
2018-02-01T19:21:14.536Z,99731.98
2018-02-01T19:23:43.017Z,99725.59
2018-02-01T19:26:11.497Z,99732.41
2018-02-01T19:28:39.951Z,99737.05
2018-02-01T19:31:08.465Z,99729.09
2018-02-01T19:33:36.921Z,99737.65
2018-02-01T19:36:05.405Z,99742.02
2018-02-01T19:38:33.869Z,99751.83
2018-02-01T19:41:02.385Z,99760.23
2018-02-01T19:43:30.829Z,99770.27
2018-02-01T19:45:59.329Z,99777.98
2018-02-01T19:48:27.776Z,99778.20
2018-02-01T19:50:56.267Z,99786.36
2018-02-01T19:53:24.751Z,99779.53
2018-02-01T19:55:53.208Z,99771.16
2018-02-01T19:58:21.653Z,99774.05
2018-02-01T20:00:50.158Z,99756.20
2018-02-01T20:03:18.620Z,99773.19
2018-02-01T20:05:47.106Z,99780.96
2018-02-01T20:08:15.565Z,99784.52
2018-02-01T20:10:44.037Z,99792.97
2018-02-01T20:13:12.502Z,99799.36
2018-02-01T20:15:40.969Z,99808.16
2018-02-01T20:18:09.421Z,99796.40
2018-02-01T20:20:37.899Z,99795.14
2018-02-01T20:23:06.377Z,99799.88
2018-02-01T20:25:34.883Z,99795.14
2018-02-01T20:28:03.344Z,99808.02
2018-02-01T20:30:31.785Z,99803.66
2018-02-01T20:33:00.261Z,99798.36
2018-02-01T20:35:28.737Z,99789.07
2018-02-01T20:37:57.181Z,99779.72
2018-02-01T20:40:25.657Z,99770.95
2018-02-01T20:42:54.138Z,99770.73
2018-02-01T20:45:22.603Z,99768.45
2018-02-01T20:47:51.085Z,99772.42
2018-02-01T20:50:19.530Z,99772.45
2018-02-01T20:52:48.005Z,99779.39
2018-02-01T20:55:16.513Z,99765.82
2018-02-01T20:57:45.018Z,99754.45
2018-02-01T21:00:13.489Z,99749.19
2018-02-01T21:02:41.969Z,99746.91
2018-02-01T21:05:10.463Z,99745.62
2018-02-01T21:07:38.906Z,99754.56
2018-02-01T21:10:07.389Z,99768.16
2018-02-01T21:12:35.834Z,99767.64
2018-02-01T21:15:04.352Z,99771.34
2018-02-01T21:17:32.817Z,99760.31
2018-02-01T21:20:01.299Z,99763.49
2018-02-01T21:22:29.778Z,99775.15
2018-02-01T21:24:58.232Z,99765.75
2018-02-01T21:27:26.719Z,99773.80
2018-02-01T21:29:55.175Z,99777.49
2018-02-01T21:32:23.639Z,99770.90
2018-02-01T21:34:52.107Z,99766.33
2018-02-01T21:37:20.589Z,99770.89
2018-02-01T21:39:49.058Z,99767.37
2018-02-01T21:42:17.534Z,99771.30
2018-02-01T21:44:46.009Z,99772.72
2018-02-01T21:47:14.450Z,99781.39
2018-02-01T21:49:42.934Z,99779.52
2018-02-01T21:52:11.397Z,99782.84
2018-02-01T21:54:39.889Z,99781.27
2018-02-01T21:57:08.354Z,99778.68
2018-02-01T21:59:36.827Z,99778.23
2018-02-01T22:02:05.313Z,99766.87
2018-02-01T22:04:33.921Z,99764.41
2018-02-01T22:07:02.378Z,99764.16
2018-02-01T22:09:30.841Z,99786.89
2018-02-01T22:11:59.333Z,99798.97
2018-02-01T22:14:27.806Z,99794.29
2018-02-01T22:16:56.314Z,99806.20
2018-02-01T22:19:24.792Z,99815.59
2018-02-01T22:21:53.260Z,99817.92
2018-02-01T22:24:21.756Z,99809.26
2018-02-01T22:26:50.250Z,99797.66
2018-02-01T22:29:18.715Z,99810.94
2018-02-01T22:31:47.225Z,99813.26
2018-02-01T22:34:15.668Z,99802.18
2018-02-01T22:36:44.158Z,99799.72
2018-02-01T22:39:12.645Z,99794.27
2018-02-01T22:41:41.116Z,99790.95
2018-02-01T22:44:09.617Z,99780.13
2018-02-01T22:46:38.145Z,99766.56
2018-02-01T22:49:06.602Z,99759.70
2018-02-01T22:51:35.127Z,99762.88
2018-02-01T22:54:03.634Z,99778.64
2018-02-01T22:56:32.089Z,99782.63
2018-02-01T22:59:01.524Z,99778.73
2018-02-01T23:01:30.034Z,99759.00
2018-02-01T23:03:58.569Z,99779.40
2018-02-01T23:06:27.045Z,99770.00
2018-02-01T23:08:55.538Z,99775.59
2018-02-01T23:11:24.096Z,99769.66
2018-02-01T23:13:52.612Z,99759.38
2018-02-01T23:16:21.114Z,99748.47
2018-02-01T23:18:49.589Z,99770.92
2018-02-01T23:21:18.049Z,99776.48
2018-02-01T23:23:46.553Z,99794.19
2018-02-01T23:26:15.046Z,99790.91
2018-02-01T23:28:43.541Z,99780.54
2018-02-01T23:31:12.035Z,99782.75
2018-02-01T23:33:40.565Z,99790.88
2018-02-01T23:36:09.063Z,99782.11
2018-02-01T23:38:37.518Z,99765.88
2018-02-01T23:41:06.011Z,99760.43
2018-02-01T23:43:34.502Z,99749.11
2018-02-01T23:46:02.990Z,99729.63
2018-02-01T23:48:31.474Z,99730.52
2018-02-01T23:50:59.966Z,99736.67
2018-02-01T23:53:28.510Z,99738.34
2018-02-01T23:55:57.023Z,99738.53
2018-02-01T23:58:25.506Z,99731.47
